Time;durP1;ratioP1;P1;durP2;ratioP2;P2;SDS_P1;SDS_P2;PMS_P1;PMS_P2;Temp;Humidity;BMP_temperature;BMP_pressure;BME280_temperature;BME280_humidity;BME280_pressure;Samples;Min_cycle;Max_cycle;Signal;HPM_P1;HPM_P2
2022/09/18 00:01:41;;;;;;;8.87;1.80;;;8.50;99.90;;;;;;5032520;28;20188;-68
2022/09/18 00:04:13;;;;;;;3.60;1.20;;;8.50;99.90;;;;;;5032459;28;20556;-68
2022/09/18 00:06:44;;;;;;;3.53;1.13;;;8.50;99.90;;;;;;5032532;28;20542;-67
2022/09/18 00:09:14;;;;;;;5.57;1.17;;;8.40;99.90;;;;;;5042401;28;20245;-67
2022/09/18 00:11:45;;;;;;;5.53;1.30;;;8.40;99.90;;;;;;5052348;28;20567;-68
2022/09/18 00:14:19;;;;;;;5.17;1.50;;;8.40;99.90;;;;;;5052372;28;20583;-67
2022/09/18 00:16:48;;;;;;;4.57;1.30;;;8.40;99.90;;;;;;5052208;28;20188;-68
2022/09/18 00:19:18;;;;;;;7.97;1.40;;;8.40;99.90;;;;;;5052014;28;20663;-69
2022/09/18 00:21:50;;;;;;;5.63;1.43;;;8.30;99.90;;;;;;5052219;28;20195;-67
2022/09/18 00:24:19;;;;;;;4.57;1.33;;;8.40;99.90;;;;;;5052438;28;20212;-68
2022/09/18 00:26:48;;;;;;;8.83;1.60;;;8.40;99.90;;;;;;5052069;28;20216;-66
2022/09/18 00:29:17;;;;;;;8.80;1.70;;;8.40;99.90;;;;;;5052171;28;20223;-67
2022/09/18 00:31:46;;;;;;;6.83;1.40;;;8.40;99.90;;;;;;5052080;28;20203;-67
2022/09/18 00:34:16;;;;;;;4.70;1.20;;;8.40;99.90;;;;;;5052048;28;20211;-66
2022/09/18 00:36:44;;;;;;;4.37;1.60;;;8.40;99.90;;;;;;5050934;28;20690;-67
2022/09/18 00:39:15;;;;;;;4.53;1.80;;;8.40;99.90;;;;;;5052052;28;20203;-66
2022/09/18 00:41:44;;;;;;;5.63;1.97;;;8.50;99.90;;;;;;5050961;28;20713;-67
2022/09/18 00:44:38;;;;;;;9.70;1.83;;;8.50;99.90;;;;;;5051973;28;20589;-66
2022/09/18 00:47:17;;;;;;;6.00;1.70;;;8.50;99.90;;;;;;5052043;28;20207;-68
2022/09/18 00:49:51;;;;;;;4.27;1.57;;;8.50;99.90;;;;;;5051861;28;20228;-68
2022/09/18 00:52:23;;;;;;;4.57;1.50;;;8.60;99.90;;;;;;5052241;28;20551;-67
2022/09/18 00:54:58;;;;;;;2.90;1.80;;;8.60;99.90;;;;;;5051907;28;20219;-67
2022/09/18 00:57:31;;;;;;;4.57;1.67;;;8.60;99.90;;;;;;5050858;28;20187;-67
2022/09/18 01:00:02;;;;;;;7.57;1.90;;;8.60;99.90;;;;;;5051991;28;20192;-67
2022/09/18 01:02:31;;;;;;;6.23;1.87;;;8.60;99.90;;;;;;5051951;28;20176;-68
2022/09/18 01:05:00;;;;;;;5.10;2.23;;;8.70;99.90;;;;;;5051750;28;20219;-66
2022/09/18 01:07:41;;;;;;;4.47;1.80;;;8.70;99.90;;;;;;5051713;28;20207;-66
2022/09/18 01:10:26;;;;;;;7.73;2.30;;;8.70;99.90;;;;;;5050635;28;20211;-66
2022/09/18 01:12:58;;;;;;;6.20;2.20;;;8.70;99.90;;;;;;5051846;28;20188;-67
2022/09/18 01:15:33;;;;;;;6.57;2.13;;;8.70;99.90;;;;;;5051755;28;20216;-67
2022/09/18 01:18:09;;;;;;;4.53;2.27;;;8.80;99.90;;;;;;5051677;28;20180;-66
2022/09/18 01:21:11;;;;;;;5.77;2.20;;;8.70;99.90;;;;;;5050556;28;20187;-69
2022/09/18 01:24:12;;;;;;;9.30;2.57;;;8.70;99.90;;;;;;5041225;28;20227;-68
2022/09/18 01:26:52;;;;;;;8.17;1.73;;;8.70;99.90;;;;;;5034269;28;20228;-67
2022/09/18 01:29:32;;;;;;;6.10;1.97;;;8.70;99.90;;;;;;5031688;28;20227;-67
2022/09/18 01:32:07;;;;;;;6.00;2.77;;;8.80;99.90;;;;;;5033863;28;20219;-66
2022/09/18 01:34:44;;;;;;;5.07;1.80;;;8.80;99.90;;;;;;5034501;28;20212;-66
2022/09/18 01:37:20;;;;;;;7.73;1.87;;;8.70;99.90;;;;;;5034150;28;20207;-67
2022/09/18 01:39:55;;;;;;;7.53;1.93;;;8.70;99.90;;;;;;5033941;28;20188;-66
2022/09/18 01:42:28;;;;;;;4.17;1.70;;;8.70;99.90;;;;;;5035025;28;20184;-65
2022/09/18 01:45:04;;;;;;;8.70;2.40;;;8.70;99.90;;;;;;5033819;28;20231;-66
2022/09/18 01:47:38;;;;;;;6.43;2.23;;;8.70;99.90;;;;;;5033754;28;20215;-67
2022/09/18 01:50:10;;;;;;;5.90;2.10;;;8.70;99.90;;;;;;5033733;28;20215;-67
2022/09/18 01:52:45;;;;;;;5.80;2.10;;;8.60;99.90;;;;;;5033749;28;20185;-67
2022/09/18 01:55:18;;;;;;;6.97;2.40;;;8.60;99.90;;;;;;5034834;28;20525;-67
2022/09/18 01:57:53;;;;;;;9.73;2.70;;;8.70;99.90;;;;;;5033708;28;20188;-67
2022/09/18 02:00:24;;;;;;;10.80;2.63;;;8.70;99.90;;;;;;5050270;28;20557;-68
2022/09/18 02:02:56;;;;;;;8.77;2.43;;;8.70;99.90;;;;;;5034795;28;20518;-67
2022/09/18 02:05:31;;;;;;;6.83;2.00;;;8.70;99.90;;;;;;5033490;28;20703;-68
2022/09/18 02:08:08;;;;;;;8.60;2.20;;;8.70;99.90;;;;;;5034709;28;20196;-68
2022/09/18 02:10:42;;;;;;;6.77;2.17;;;8.70;99.90;;;;;;5033402;28;20212;-68
2022/09/18 02:13:16;;;;;;;6.40;1.87;;;8.70;99.90;;;;;;5032964;28;20211;-67
2022/09/18 02:15:49;;;;;;;8.17;2.20;;;8.70;99.90;;;;;;5034616;28;20185;-66
2022/09/18 02:18:26;;;;;;;8.57;2.53;;;8.80;99.90;;;;;;5032477;28;20561;-66
2022/09/18 02:20:56;;;;;;;8.40;2.40;;;8.80;99.90;;;;;;5049699;28;20219;-66
2022/09/18 02:23:25;;;;;;;5.43;1.97;;;8.90;99.90;;;;;;5034272;28;20657;-67
2022/09/18 02:25:59;;;;;;;4.33;2.53;;;8.90;99.90;;;;;;5032988;28;20207;-67
2022/09/18 02:28:30;;;;;;;6.47;2.03;;;8.90;99.90;;;;;;5034239;28;20207;-65
2022/09/18 02:31:00;;;;;;;9.67;2.83;;;8.90;99.90;;;;;;5032756;28;20224;-66
2022/09/18 02:33:33;;;;;;;4.50;2.20;;;8.90;99.90;;;;;;5032960;28;20712;-67
2022/09/18 02:36:19;;;;;;;3.70;2.20;;;8.90;99.90;;;;;;5032951;28;20185;-67
2022/09/18 02:38:57;;;;;;;5.47;2.27;;;8.90;99.90;;;;;;5032906;28;20557;-67
2022/09/18 02:41:42;;;;;;;7.03;2.30;;;8.90;99.90;;;;;;5034046;28;20649;-66
2022/09/18 02:44:18;;;;;;;4.10;2.40;;;8.90;99.90;;;;;;5032763;28;20563;-66
2022/09/18 02:47:00;;;;;;;8.90;2.50;;;8.90;99.90;;;;;;5032698;28;20191;-66
2022/09/18 02:49:40;;;;;;;3.97;2.33;;;8.90;99.90;;;;;;5032600;28;20558;-67
2022/09/18 02:52:16;;;;;;;5.33;2.37;;;8.90;99.90;;;;;;5032532;28;20211;-66
2022/09/18 02:54:52;;;;;;;4.80;2.40;;;8.90;99.90;;;;;;5032523;28;20211;-67
2022/09/18 02:57:26;;;;;;;4.63;2.00;;;8.90;99.90;;;;;;5049144;28;20195;-68
2022/09/18 02:59:59;;;;;;;6.90;2.10;;;8.90;99.90;;;;;;5032023;28;20208;-68
2022/09/18 03:02:29;;;;;;;5.13;2.47;;;8.90;99.90;;;;;;5032404;28;20208;-68
2022/09/18 03:04:58;;;;;;;6.10;2.27;;;8.90;99.90;;;;;;5032215;28;20219;-67
2022/09/18 03:07:34;;;;;;;5.60;2.40;;;8.90;99.90;;;;;;5032375;28;20193;-67
2022/09/18 03:10:04;;;;;;;6.17;2.17;;;8.90;99.90;;;;;;5032203;28;20192;-67
2022/09/18 03:12:32;;;;;;;5.93;2.53;;;8.90;99.90;;;;;;5032198;28;20197;-66
2022/09/18 03:15:05;;;;;;;7.00;2.33;;;9.00;99.90;;;;;;5032231;28;20680;-67
2022/09/18 03:17:36;;;;;;;2.77;2.20;;;9.00;99.90;;;;;;5032121;28;20180;-68
2022/09/18 03:20:06;;;;;;;7.57;2.13;;;9.10;99.90;;;;;;5048725;28;20219;-68
2022/09/18 03:22:35;;;;;;;8.30;2.60;;;9.00;99.90;;;;;;5033243;28;20196;-68
2022/09/18 03:25:04;;;;;;;5.77;2.20;;;9.10;99.90;;;;;;5031894;28;20212;-66
2022/09/18 03:27:34;;;;;;;4.00;1.97;;;9.10;99.90;;;;;;5048396;28;20582;-66
2022/09/18 03:30:03;;;;;;;5.93;2.30;;;9.10;99.90;;;;;;5031951;28;20187;-68
2022/09/18 03:32:33;;;;;;;6.73;2.07;;;9.10;99.90;;;;;;5031859;28;20212;-67
2022/09/18 03:35:04;;;;;;;5.67;2.20;;;9.10;99.90;;;;;;5031774;28;20584;-67
2022/09/18 03:37:32;;;;;;;5.73;2.27;;;9.10;99.90;;;;;;5031824;28;20540;-67
2022/09/18 03:40:04;;;;;;;4.70;2.17;;;9.10;99.90;;;;;;5031666;28;20205;-67
2022/09/18 03:42:43;;;;;;;10.63;2.73;;;9.10;99.90;;;;;;5032874;28;20199;-66
2022/09/18 03:45:12;;;;;;;9.03;2.50;;;9.10;99.90;;;;;;5031657;28;20220;-67
2022/09/18 03:47:41;;;;;;;5.70;1.83;;;9.20;99.90;;;;;;5031704;28;20207;-67
2022/09/18 03:50:13;;;;;;;4.57;1.80;;;9.10;99.90;;;;;;5031428;28;20213;-67
2022/09/18 03:52:42;;;;;;;6.17;2.07;;;9.10;99.90;;;;;;5031507;28;20235;-67
2022/09/18 03:55:36;;;;;;;5.17;1.83;;;9.20;99.90;;;;;;5047592;28;20217;-67
2022/09/18 03:58:23;;;;;;;7.27;2.30;;;9.20;99.90;;;;;;5032723;28;20176;-67
2022/09/18 04:01:11;;;;;;;4.20;1.97;;;9.10;99.90;;;;;;5032579;28;20193;-67
2022/09/18 04:04:12;;;;;;;4.83;1.83;;;9.20;99.90;;;;;;5032359;28;20220;-65
2022/09/18 04:07:02;;;;;;;6.93;2.03;;;9.20;99.90;;;;;;5031859;28;20212;-65
2022/09/18 04:09:49;;;;;;;4.97;1.70;;;9.10;99.90;;;;;;5032443;28;20189;-66
2022/09/18 04:12:18;;;;;;;6.47;2.00;;;9.10;99.90;;;;;;5032245;28;20243;-62
2022/09/18 04:14:55;;;;;;;5.97;1.73;;;9.10;99.90;;;;;;5031302;28;20216;-66
2022/09/18 04:17:24;;;;;;;5.90;2.00;;;9.10;99.90;;;;;;5047874;28;20200;-66
2022/09/18 04:19:53;;;;;;;8.33;2.30;;;9.10;99.90;;;;;;5031303;28;20192;-65
2022/09/18 04:22:23;;;;;;;6.20;1.90;;;9.10;99.90;;;;;;5032311;28;20196;-66
2022/09/18 04:24:55;;;;;;;9.80;1.83;;;9.10;99.90;;;;;;5032360;28;20303;-67
2022/09/18 04:27:24;;;;;;;6.97;1.70;;;9.10;99.90;;;;;;5032241;28;20201;-66
2022/09/18 04:29:53;;;;;;;9.53;2.07;;;9.10;99.90;;;;;;5031141;28;20188;-65
2022/09/18 04:32:23;;;;;;;8.87;2.50;;;9.10;99.90;;;;;;5031108;28;20216;-66
2022/09/18 04:34:52;;;;;;;6.63;2.10;;;9.10;99.90;;;;;;5030963;28;20219;-65
2022/09/18 04:37:23;;;;;;;4.80;2.07;;;9.10;99.90;;;;;;5047596;28;20193;-65
2022/09/18 04:39:53;;;;;;;7.17;1.97;;;9.20;99.90;;;;;;5031095;28;20184;-65
2022/09/18 04:42:22;;;;;;;10.00;2.00;;;9.20;99.90;;;;;;5031040;28;20671;-65
2022/09/18 04:44:51;;;;;;;4.37;1.77;;;9.20;99.90;;;;;;5030699;28;20238;-65
2022/09/18 04:47:21;;;;;;;6.83;2.20;;;9.20;99.90;;;;;;5030984;28;20212;-65
2022/09/18 04:49:50;;;;;;;7.30;2.37;;;9.20;99.90;;;;;;5030847;28;20192;-65
2022/09/18 04:52:19;;;;;;;7.43;2.03;;;9.10;99.90;;;;;;5030973;28;20239;-65
2022/09/18 04:54:49;;;;;;;5.20;1.63;;;9.10;99.90;;;;;;5030772;28;20212;-66
2022/09/18 04:57:18;;;;;;;6.27;2.00;;;9.10;99.90;;;;;;5014441;28;20669;-66
2022/09/18 04:59:50;;;;;;;5.87;1.80;;;9.10;99.90;;;;;;5030405;28;20205;-65
2022/09/18 05:02:19;;;;;;;4.70;1.83;;;9.10;99.90;;;;;;5030780;28;20207;-65
2022/09/18 05:04:48;;;;;;;4.97;1.90;;;9.10;99.90;;;;;;5030706;28;20239;-66
2022/09/18 05:07:31;;;;;;;5.27;1.90;;;9.10;99.90;;;;;;5049976;28;20203;-65
2022/09/18 05:10:01;;;;;;;5.07;1.70;;;9.10;99.90;;;;;;5034532;28;20545;-66
2022/09/18 05:12:31;;;;;;;5.00;1.93;;;9.10;99.90;;;;;;5034402;28;20213;-66
2022/09/18 05:15:00;;;;;;;3.67;1.63;;;9.10;99.90;;;;;;5034360;28;20208;-66
2022/09/18 05:17:29;;;;;;;5.33;1.80;;;9.10;99.90;;;;;;5017787;28;20212;-66
2022/09/18 05:20:00;;;;;;;4.93;1.87;;;9.10;99.90;;;;;;5050911;28;20177;-66
2022/09/18 05:22:36;;;;;;;4.27;1.70;;;9.20;99.90;;;;;;5034255;28;20213;-66
2022/09/18 05:25:11;;;;;;;5.07;1.90;;;9.10;99.90;;;;;;5034149;28;20573;-67
2022/09/18 05:27:40;;;;;;;7.57;2.00;;;9.10;99.90;;;;;;5017441;28;20680;-67
2022/09/18 05:30:10;;;;;;;4.57;1.83;;;9.20;99.90;;;;;;5034126;28;20192;-66
2022/09/18 05:32:56;;;;;;;3.97;2.20;;;9.20;99.90;;;;;;5034068;28;20212;-65
2022/09/18 05:35:29;;;;;;;5.43;2.00;;;9.10;99.90;;;;;;5034028;28;20215;-66
2022/09/18 05:37:59;;;;;;;3.20;1.83;;;9.20;99.90;;;;;;5034043;28;20192;-66
2022/09/18 05:40:33;;;;;;;3.70;1.87;;;9.20;99.90;;;;;;5033931;28;20549;-65
2022/09/18 05:43:02;;;;;;;6.50;1.70;;;9.20;99.90;;;;;;5033444;28;20207;-66
2022/09/18 05:45:34;;;;;;;7.07;2.13;;;9.20;99.90;;;;;;5035016;28;20229;-67
2022/09/18 05:48:08;;;;;;;6.43;2.27;;;9.10;99.90;;;;;;5050454;28;20184;-67
2022/09/18 05:50:37;;;;;;;5.93;2.00;;;9.10;99.90;;;;;;5033756;28;20189;-66
2022/09/18 05:53:10;;;;;;;5.83;2.00;;;9.10;99.90;;;;;;5033685;28;20224;-65
2022/09/18 05:55:47;;;;;;;6.57;3.03;;;9.10;99.90;;;;;;5050319;28;20192;-66
2022/09/18 05:58:17;;;;;;;5.00;2.50;;;9.10;99.90;;;;;;5050287;28;20196;-65
2022/09/18 06:00:50;;;;;;;6.37;2.50;;;9.10;99.90;;;;;;5033642;28;20563;-66
2022/09/18 06:03:27;;;;;;;4.33;2.00;;;9.10;99.90;;;;;;5033499;28;20203;-66
2022/09/18 06:06:03;;;;;;;6.73;2.40;;;9.10;99.90;;;;;;5033526;28;20199;-66
2022/09/18 06:08:32;;;;;;;7.57;1.97;;;9.00;99.90;;;;;;5033438;28;20196;-66
2022/09/18 06:11:02;;;;;;;2.67;1.90;;;9.00;99.90;;;;;;5033396;28;20204;-66
2022/09/18 06:13:32;;;;;;;5.20;2.33;;;9.00;99.90;;;;;;5033330;28;20228;-66
2022/09/18 06:16:01;;;;;;;4.67;2.23;;;9.10;99.90;;;;;;5033263;28;20211;-66
2022/09/18 06:18:49;;;;;;;4.10;2.20;;;9.00;99.90;;;;;;5033029;28;20200;-65
2022/09/18 06:21:17;;;;;;;6.87;2.10;;;9.00;99.90;;;;;;5033147;28;20200;-65
2022/09/18 06:23:46;;;;;;;5.83;2.27;;;9.00;99.90;;;;;;5032356;28;20220;-64
2022/09/18 06:26:25;;;;;;;4.67;2.27;;;9.00;99.90;;;;;;5049622;28;20215;-65
2022/09/18 06:28:54;;;;;;;4.83;2.10;;;9.00;99.90;;;;;;5034597;28;20223;-65
2022/09/18 06:31:23;;;;;;;8.40;2.30;;;9.00;99.90;;;;;;5034176;28;20675;-65
2022/09/18 06:34:00;;;;;;;5.20;2.20;;;9.00;99.90;;;;;;5032818;28;20235;-67
2022/09/18 06:36:28;;;;;;;6.47;2.23;;;9.00;99.90;;;;;;5032924;28;20193;-68
2022/09/18 06:39:26;;;;;;;5.03;2.20;;;9.00;99.90;;;;;;5014637;28;20217;-69
2022/09/18 06:42:00;;;;;;;5.80;2.10;;;9.00;99.90;;;;;;5032835;28;20188;-66
2022/09/18 06:44:47;;;;;;;4.20;2.17;;;9.00;99.90;;;;;;5032744;28;20695;-65
2022/09/18 06:47:17;;;;;;;7.57;2.20;;;9.00;99.90;;;;;;5032754;28;20188;-67
2022/09/18 06:49:47;;;;;;;3.87;2.10;;;9.00;99.90;;;;;;5049393;28;20219;-67
2022/09/18 06:52:17;;;;;;;3.17;2.20;;;9.00;99.90;;;;;;5033758;28;20220;-68
2022/09/18 06:54:47;;;;;;;4.70;2.00;;;9.00;99.90;;;;;;5031930;28;20251;-67
2022/09/18 06:57:31;;;;;;;4.23;2.30;;;9.00;99.90;;;;;;5033182;28;20208;-65
2022/09/18 07:00:00;;;;;;;3.20;2.30;;;9.00;99.90;;;;;;5033683;28;20197;-65
2022/09/18 07:02:36;;;;;;;3.27;2.30;;;9.00;99.90;;;;;;5049062;28;20184;-66
2022/09/18 07:05:27;;;;;;;4.70;2.63;;;9.00;99.90;;;;;;5032275;28;20228;-65
2022/09/18 07:07:56;;;;;;;3.00;2.23;;;9.00;99.90;;;;;;5032356;28;20193;-66
2022/09/18 07:10:25;;;;;;;6.80;2.40;;;9.00;99.90;;;;;;5032278;28;20660;-65
2022/09/18 07:12:57;;;;;;;4.13;2.43;;;9.00;99.90;;;;;;5033360;28;20220;-64
2022/09/18 07:15:26;;;;;;;5.03;2.43;;;9.10;99.90;;;;;;5032142;28;20212;-66
2022/09/18 07:17:56;;;;;;;4.93;2.40;;;9.20;99.90;;;;;;5032188;28;20188;-65
2022/09/18 07:20:25;;;;;;;4.77;2.30;;;9.10;99.90;;;;;;5032005;28;20203;-65
2022/09/18 07:22:56;;;;;;;3.67;2.10;;;9.10;99.90;;;;;;5033226;28;20196;-65
2022/09/18 07:25:37;;;;;;;4.47;2.30;;;9.10;99.90;;;;;;5048834;28;20220;-67
2022/09/18 07:28:08;;;;;;;4.63;1.93;;;9.10;99.90;;;;;;5048271;28;20644;-66
2022/09/18 07:30:42;;;;;;;3.03;2.03;;;9.20;99.90;;;;;;5031610;28;20184;-65
2022/09/18 07:33:11;;;;;;;3.87;2.23;;;9.10;99.90;;;;;;5032470;28;20223;-65
2022/09/18 07:35:46;;;;;;;3.93;1.83;;;9.20;99.90;;;;;;5048413;28;20206;-64
2022/09/18 07:38:17;;;;;;;3.50;1.90;;;9.10;99.90;;;;;;5031673;28;20213;-64
2022/09/18 07:40:54;;;;;;;4.53;2.30;;;9.20;99.90;;;;;;5031891;28;20195;-66
2022/09/18 07:43:37;;;;;;;2.80;1.97;;;9.20;99.90;;;;;;5031701;28;20220;-65
2022/09/18 07:46:06;;;;;;;4.03;1.93;;;9.20;99.90;;;;;;5031712;28;20648;-67
2022/09/18 07:48:35;;;;;;;5.00;1.93;;;9.20;99.90;;;;;;5032099;28;20695;-66
2022/09/18 07:51:10;;;;;;;2.93;1.67;;;9.20;99.90;;;;;;5031603;28;20180;-67
2022/09/18 07:53:40;;;;;;;4.07;2.03;;;9.20;99.90;;;;;;5031360;28;20708;-66
2022/09/18 07:56:10;;;;;;;4.43;1.90;;;9.30;99.90;;;;;;5032194;28;20200;-67
2022/09/18 07:58:41;;;;;;;3.73;1.70;;;9.20;99.90;;;;;;5031355;28;20192;-66
2022/09/18 08:01:16;;;;;;;5.73;2.30;;;9.20;99.90;;;;;;5032704;28;20188;-67
2022/09/18 08:03:50;;;;;;;5.90;2.17;;;9.20;99.90;;;;;;5031296;28;20700;-66
2022/09/18 08:06:19;;;;;;;4.40;1.90;;;9.20;99.90;;;;;;5032468;28;20197;-64
2022/09/18 08:08:56;;;;;;;4.40;2.10;;;9.20;99.90;;;;;;5031467;28;20192;-65
2022/09/18 08:11:45;;;;;;;3.77;1.93;;;9.20;99.90;;;;;;5041310;28;20220;-66
2022/09/18 08:14:34;;;;;;;2.80;1.80;;;9.20;99.90;;;;;;5032403;28;20228;-65
2022/09/18 08:17:14;;;;;;;5.37;1.63;;;9.20;99.90;;;;;;5031243;28;20185;-65
2022/09/18 08:20:09;;;;;;;5.07;1.70;;;9.20;99.90;;;;;;5031259;28;20196;-66
2022/09/18 08:22:55;;;;;;;5.10;2.20;;;9.20;99.90;;;;;;5031205;28;20192;-66
2022/09/18 08:25:27;;;;;;;4.87;1.87;;;9.20;99.90;;;;;;5047649;28;20212;-65
2022/09/18 08:28:00;;;;;;;4.37;1.80;;;9.20;99.90;;;;;;5030335;28;20204;-65
2022/09/18 08:30:38;;;;;;;2.70;1.77;;;9.20;99.90;;;;;;5030932;28;20208;-65
2022/09/18 08:33:11;;;;;;;3.37;1.80;;;9.30;99.90;;;;;;5032298;28;20243;-64
2022/09/18 08:35:40;;;;;;;4.00;2.13;;;9.30;99.90;;;;;;5047240;28;20228;-66
2022/09/18 08:38:20;;;;;;;4.53;2.07;;;9.30;99.90;;;;;;5031092;28;20527;-66
2022/09/18 08:41:13;;;;;;;3.03;1.90;;;9.40;99.90;;;;;;5033607;28;20211;-65
2022/09/18 08:43:56;;;;;;;6.13;1.90;;;9.40;99.90;;;;;;5035012;28;20208;-66
2022/09/18 08:46:31;;;;;;;6.97;1.70;;;9.50;99.90;;;;;;5036226;28;20185;-64
2022/09/18 08:49:10;;;;;;;3.10;1.60;;;9.50;99.90;;;;;;5051509;28;20188;-66
2022/09/18 08:51:45;;;;;;;8.90;2.00;;;9.60;99.90;;;;;;5034764;28;20200;-65
2022/09/18 08:54:20;;;;;;;2.23;1.57;;;9.70;99.90;;;;;;5034385;28;20231;-66
2022/09/18 08:57:16;;;;;;;2.30;1.63;;;9.70;99.90;;;;;;5018321;28;20206;-66
2022/09/18 09:00:06;;;;;;;3.93;1.63;;;9.70;99.90;;;;;;5034352;28;20570;-67
2022/09/18 09:02:43;;;;;;;2.43;1.60;;;9.80;99.90;;;;;;5034735;28;20685;-66
2022/09/18 09:05:14;;;;;;;4.37;1.50;;;9.90;99.90;;;;;;5035728;28;20247;-66
2022/09/18 09:08:09;;;;;;;4.83;1.57;;;10.00;99.90;;;;;;5035752;28;20549;-66
2022/09/18 09:10:47;;;;;;;2.17;1.43;;;10.00;99.90;;;;;;5034497;28;20196;-66
2022/09/18 09:13:36;;;;;;;4.17;2.17;;;10.00;99.90;;;;;;5034422;28;20181;-66
2022/09/18 09:16:14;;;;;;;3.80;2.17;;;10.10;99.90;;;;;;5034358;28;20579;-66
2022/09/18 09:18:58;;;;;;;5.43;2.60;;;10.20;99.90;;;;;;5034362;28;20637;-66
2022/09/18 09:21:45;;;;;;;3.63;2.13;;;10.30;99.90;;;;;;5034361;28;20668;-65
2022/09/18 09:24:28;;;;;;;4.70;1.60;;;10.30;99.90;;;;;;5034374;28;20711;-65
2022/09/18 09:27:19;;;;;;;4.13;1.60;;;10.30;99.90;;;;;;5035303;28;20200;-66
2022/09/18 09:30:13;;;;;;;4.10;1.90;;;10.30;99.90;;;;;;5035383;28;20177;-66
2022/09/18 09:33:12;;;;;;;7.17;2.20;;;10.30;99.90;;;;;;5035255;28;20189;-65
2022/09/18 09:36:07;;;;;;;3.20;1.60;;;10.30;99.90;;;;;;5050618;28;20578;-64
2022/09/18 09:38:51;;;;;;;1.93;1.73;;;10.40;99.90;;;;;;5050605;28;20645;-66
2022/09/18 09:41:27;;;;;;;3.10;1.93;;;10.40;99.90;;;;;;5034004;28;20189;-66
2022/09/18 09:44:04;;;;;;;3.17;2.00;;;10.40;99.90;;;;;;5033943;28;20231;-66
2022/09/18 09:46:47;;;;;;;4.63;2.30;;;10.40;99.90;;;;;;5050546;28;20192;-66
2022/09/18 09:49:22;;;;;;;4.20;1.80;;;10.40;99.90;;;;;;5035093;28;20192;-67
2022/09/18 09:51:59;;;;;;;3.60;2.33;;;10.40;99.90;;;;;;5034155;28;20184;-65
2022/09/18 09:54:31;;;;;;;4.57;2.20;;;10.40;99.90;;;;;;5050273;28;20571;-66
2022/09/18 09:57:11;;;;;;;10.87;5.70;;;10.50;99.90;;;;;;5034782;28;20216;-66
2022/09/18 09:59:48;;;;;;;8.00;6.03;;;10.50;99.90;;;;;;5050229;28;20181;-67
2022/09/18 10:03:10;;;;;;;6.43;3.60;;;10.50;99.90;;;;;;5033616;28;20196;-67
2022/09/18 10:05:47;;;;;;;9.13;2.47;;;10.50;99.90;;;;;;5001159;28;20220;-67
2022/09/18 10:08:31;;;;;;;5.07;3.17;;;10.50;99.90;;;;;;5033463;28;20191;-67
2022/09/18 10:11:07;;;;;;;5.27;2.70;;;10.50;99.90;;;;;;5033334;28;20203;-67
2022/09/18 10:13:42;;;;;;;4.47;2.70;;;10.60;99.90;;;;;;5033408;28;20211;-67
2022/09/18 10:16:16;;;;;;;5.13;2.10;;;10.50;99.90;;;;;;5033279;28;20223;-67
2022/09/18 10:18:47;;;;;;;4.03;2.50;;;10.60;99.90;;;;;;5034438;28;20211;-66
2022/09/18 10:21:19;;;;;;;3.93;2.33;;;10.60;99.90;;;;;;5049824;28;20184;-65
2022/09/18 10:23:54;;;;;;;5.33;2.40;;;10.60;99.90;;;;;;5032995;28;20240;-65
2022/09/18 10:26:31;;;;;;;3.87;2.00;;;10.70;99.90;;;;;;5033106;28;20208;-67
2022/09/18 10:29:01;;;;;;;5.97;2.87;;;10.80;99.90;;;;;;5033135;28;20181;-65
2022/09/18 10:31:47;;;;;;;5.67;3.03;;;10.90;99.90;;;;;;5034318;28;20526;-65
2022/09/18 10:34:34;;;;;;;5.83;2.30;;;10.90;99.90;;;;;;5032945;28;20208;-67
2022/09/18 10:37:04;;;;;;;3.13;2.03;;;10.80;99.90;;;;;;5032504;28;20228;-67
2022/09/18 10:39:36;;;;;;;2.90;2.23;;;10.70;99.90;;;;;;5032831;28;20193;-67
2022/09/18 10:42:16;;;;;;;3.00;2.07;;;10.60;99.90;;;;;;5032835;28;20192;-70
2022/09/18 10:44:50;;;;;;;4.40;1.93;;;10.60;99.90;;;;;;5032853;28;20790;-66
2022/09/18 10:47:26;;;;;;;2.40;1.90;;;10.50;99.90;;;;;;5032762;28;20192;-66
2022/09/18 10:50:00;;;;;;;3.87;2.00;;;10.50;99.90;;;;;;5032741;28;20535;-66
2022/09/18 10:52:34;;;;;;;3.27;2.10;;;10.60;99.90;;;;;;5048828;28;20213;-65
2022/09/18 10:55:16;;;;;;;3.87;1.97;;;10.60;99.90;;;;;;5032509;28;20219;-65
2022/09/18 10:58:06;;;;;;;4.27;2.00;;;10.60;99.90;;;;;;5032616;28;20197;-66
2022/09/18 11:00:41;;;;;;;2.90;1.90;;;10.70;99.90;;;;;;5032604;28;20192;-66
2022/09/18 11:03:22;;;;;;;5.80;1.90;;;10.80;99.90;;;;;;5032437;28;20198;-66
2022/09/18 11:05:56;;;;;;;4.00;1.80;;;10.90;99.90;;;;;;5049004;28;20553;-67
2022/09/18 11:08:29;;;;;;;2.60;1.40;;;10.90;99.90;;;;;;5048372;28;20215;-66
2022/09/18 11:11:06;;;;;;;2.80;1.53;;;11.00;99.90;;;;;;5032340;28;20189;-64
2022/09/18 11:13:49;;;;;;;3.00;1.77;;;11.00;99.90;;;;;;5032367;28;20208;-65
2022/09/18 11:16:25;;;;;;;3.60;1.50;;;11.10;99.90;;;;;;5015628;28;20220;-67
2022/09/18 11:19:23;;;;;;;3.03;1.20;;;11.10;99.90;;;;;;5032230;28;20649;-65
2022/09/18 11:21:54;;;;;;;1.87;1.23;;;11.10;99.90;;;;;;5033259;28;20196;-66
2022/09/18 11:24:27;;;;;;;2.80;1.60;;;11.00;99.90;;;;;;5031987;28;20219;-66
2022/09/18 11:27:21;;;;;;;1.63;1.20;;;11.00;99.90;;;;;;5032054;28;20215;-65
2022/09/18 11:30:14;;;;;;;3.30;1.20;;;11.10;99.90;;;;;;5032031;28;20664;-66
2022/09/18 11:32:46;;;;;;;2.53;1.50;;;11.00;99.90;;;;;;5033001;28;20189;-66
2022/09/18 11:35:17;;;;;;;3.53;1.60;;;11.10;99.90;;;;;;5049151;28;20216;-67
2022/09/18 11:37:51;;;;;;;5.77;1.27;;;11.20;99.90;;;;;;5031401;28;20224;-67
2022/09/18 11:40:23;;;;;;;3.47;1.23;;;11.30;99.90;;;;;;5031803;28;20192;-65
2022/09/18 11:42:55;;;;;;;2.60;1.30;;;11.30;99.90;;;;;;5048341;28;20185;-65
2022/09/18 11:45:49;;;;;;;2.30;1.60;;;11.40;99.90;;;;;;5031723;28;20212;-65
2022/09/18 11:48:27;;;;;;;4.83;1.50;;;11.50;99.90;;;;;;5031645;28;20184;-65
2022/09/18 11:51:01;;;;;;;2.50;1.38;;;11.60;99.90;;;;;;5031525;28;20215;-66
2022/09/18 11:53:38;;;;;;;2.57;1.37;;;11.70;99.90;;;;;;5031540;28;20188;-65
2022/09/18 11:56:14;;;;;;;3.10;1.50;;;11.90;99.90;;;;;;5031513;28;20528;-67
2022/09/18 11:58:52;;;;;;;4.27;1.63;;;12.00;99.90;;;;;;5031537;28;20176;-66
2022/09/18 12:01:30;;;;;;;3.08;1.42;;;12.00;99.90;;;;;;5048141;28;20177;-66
2022/09/18 12:04:06;;;;;;;3.47;1.48;;;12.10;99.90;;;;;;5031347;28;20220;-66
2022/09/18 12:06:41;;;;;;;5.00;1.40;;;12.20;99.90;;;;;;5031528;28;20184;-66
2022/09/18 12:09:16;;;;;;;3.63;1.73;;;12.20;99.90;;;;;;5032573;28;20199;-66
2022/09/18 12:11:56;;;;;;;5.05;1.67;;;12.30;99.90;;;;;;5031353;28;20184;-67
2022/09/18 12:14:36;;;;;;;3.13;1.60;;;12.20;99.90;;;;;;5030690;28;20227;-67
2022/09/18 12:17:22;;;;;;;4.07;1.23;;;12.20;99.90;;;;;;5031160;28;20224;-66
2022/09/18 12:19:56;;;;;;;4.30;1.45;;;12.20;99.90;;;;;;5031319;28;20191;-67
2022/09/18 12:22:31;;;;;;;2.53;1.40;;;12.10;99.90;;;;;;5032619;28;20199;-67
2022/09/18 12:25:00;;;;;;;4.22;1.23;;;12.10;99.90;;;;;;5032581;28;20288;-67
2022/09/18 12:27:55;;;;;;;5.57;1.25;;;12.20;99.90;;;;;;5031924;28;20220;-68
2022/09/18 12:30:35;;;;;;;3.85;1.50;;;12.10;99.90;;;;;;5031216;28;20187;-65
2022/09/18 12:33:17;;;;;;;3.78;1.35;;;12.00;99.90;;;;;;5032311;28;20550;-67
2022/09/18 12:36:04;;;;;;;5.20;1.98;;;12.00;99.90;;;;;;5031187;28;20184;-67
2022/09/18 12:38:45;;;;;;;4.63;1.70;;;12.10;99.90;;;;;;5032133;28;20231;-68
2022/09/18 12:41:27;;;;;;;4.95;1.73;;;12.00;99.90;;;;;;5031749;28;20205;-68
2022/09/18 12:44:37;;;;;;;3.30;1.55;;;12.00;99.90;;;;;;5032301;28;20224;-67
2022/09/18 12:47:22;;;;;;;3.10;1.77;;;12.00;99.90;;;;;;5022901;28;20204;-66
2022/09/18 12:50:06;;;;;;;2.70;1.43;;;12.00;99.90;;;;;;5032181;28;20189;-68
2022/09/18 12:52:48;;;;;;;5.18;1.95;;;12.10;99.90;;;;;;5032141;28;20555;-65
2022/09/18 12:55:51;;;;;;;4.23;1.90;;;12.10;99.90;;;;;;5031576;28;20232;-67
2022/09/18 12:58:40;;;;;;;5.47;2.20;;;12.10;99.90;;;;;;5032000;28;20215;-67
2022/09/18 13:01:23;;;;;;;5.90;2.13;;;12.10;99.90;;;;;;5032207;28;20579;-65
2022/09/18 13:04:00;;;;;;;7.45;2.38;;;12.20;99.90;;;;;;5031935;28;20688;-66
2022/09/18 13:06:37;;;;;;;5.25;1.70;;;12.20;99.90;;;;;;5031890;28;20200;-66
2022/09/18 13:09:17;;;;;;;7.70;4.10;;;12.20;99.90;;;;;;5032011;28;20551;-68
2022/09/18 13:11:50;;;;;;;3.95;2.40;;;12.20;99.90;;;;;;5031372;28;20215;-66
2022/09/18 13:14:23;;;;;;;5.95;2.13;;;12.20;99.90;;;;;;5031903;28;20239;-65
2022/09/18 13:16:56;;;;;;;3.80;2.92;;;12.20;99.90;;;;;;5031566;28;20559;-66
2022/09/18 13:19:31;;;;;;;3.60;1.73;;;12.30;99.90;;;;;;5030716;28;20201;-66
2022/09/18 13:22:06;;;;;;;4.47;3.13;;;12.30;99.90;;;;;;5031858;28;20196;-67
2022/09/18 13:24:39;;;;;;;5.72;2.28;;;12.40;99.90;;;;;;5031870;28;20216;-67
2022/09/18 13:27:12;;;;;;;4.38;1.70;;;12.40;99.90;;;;;;5031341;28;20687;-66
2022/09/18 13:29:47;;;;;;;2.28;1.50;;;12.40;99.90;;;;;;5035398;28;20185;-65
2022/09/18 13:32:19;;;;;;;4.85;2.10;;;12.40;99.90;;;;;;5035423;28;20189;-66
2022/09/18 13:34:53;;;;;;;5.80;2.00;;;12.30;99.90;;;;;;5035297;28;20221;-66
2022/09/18 13:37:25;;;;;;;2.05;1.20;;;12.20;99.90;;;;;;5035198;28;20188;-66
2022/09/18 13:39:57;;;;;;;3.38;1.38;;;12.20;99.90;;;;;;5035104;28;20196;-66